createdAt,value
2017-07-01T00:00:02.954Z,15.0
2017-07-01T00:05:03.006Z,15.0
2017-07-01T00:10:02.451Z,15.0
2017-07-01T00:15:02.734Z,14.8
2017-07-01T00:20:03.082Z,14.8
2017-07-01T00:25:02.393Z,15.0
2017-07-01T00:30:02.774Z,14.8
2017-07-01T00:35:03.158Z,14.8
2017-07-01T00:40:02.591Z,14.6
2017-07-01T00:45:03.045Z,14.6
2017-07-01T00:50:02.367Z,14.6
2017-07-01T00:55:02.729Z,14.5
2017-07-01T01:00:03.113Z,14.5
2017-07-01T01:05:02.375Z,14.5
2017-07-01T01:10:02.788Z,14.5
2017-07-01T01:15:03.120Z,14.5
2017-07-01T01:20:02.704Z,14.5
2017-07-01T01:25:02.935Z,14.5
2017-07-01T01:30:02.279Z,14.5
2017-07-01T01:35:02.585Z,14.6
2017-07-01T01:40:03.040Z,14.6
2017-07-01T01:45:02.293Z,14.6
2017-07-01T01:50:02.823Z,14.6
2017-07-01T01:55:03.223Z,14.5
2017-07-01T02:00:02.508Z,14.6
2017-07-01T02:05:02.903Z,14.5
2017-07-01T02:10:02.321Z,14.3
2017-07-01T02:15:02.730Z,14.3
2017-07-01T02:20:03.096Z,14.3
2017-07-01T02:25:02.417Z,14.3
2017-07-01T02:30:02.858Z,14.3
2017-07-01T02:35:03.205Z,14.3
2017-07-01T02:40:02.510Z,14.3
2017-07-01T02:45:02.790Z,14.3
2017-07-01T02:50:03.058Z,14.3
2017-07-01T02:55:02.339Z,14.3
2017-07-01T03:00:02.756Z,14.3
2017-07-01T03:05:02.974Z,14.3
2017-07-01T03:10:02.458Z,14.3
2017-07-01T03:15:02.784Z,14.3
2017-07-01T03:20:03.087Z,14.3
2017-07-01T03:25:02.534Z,14.3
2017-07-01T03:30:03.204Z,14.3
2017-07-01T03:35:02.515Z,14.3
2017-07-01T03:40:02.902Z,14.3
2017-07-01T03:45:03.124Z,14.3
2017-07-01T03:50:02.463Z,14.3
2017-07-01T03:55:02.785Z,14.1
2017-07-01T04:00:03.330Z,14.1
2017-07-01T04:05:02.678Z,14.1
2017-07-01T04:10:03.298Z,14.0
2017-07-01T04:15:02.512Z,14.0
2017-07-01T04:20:02.945Z,14.0
2017-07-01T04:25:02.388Z,14.0
2017-07-01T04:30:03.023Z,14.0
2017-07-01T04:35:02.327Z,14.0
2017-07-01T04:40:02.855Z,14.0
2017-07-01T04:45:03.230Z,14.0
2017-07-01T04:50:02.537Z,14.1
2017-07-01T04:55:02.934Z,14.1
2017-07-01T05:00:02.637Z,14.3
2017-07-01T05:05:02.893Z,14.1
2017-07-01T05:10:02.358Z,14.1
2017-07-01T05:15:03.081Z,14.1
2017-07-01T05:20:02.379Z,14.3
2017-07-01T05:25:02.823Z,14.3
2017-07-01T05:30:03.944Z,14.3
2017-07-01T05:35:03.261Z,14.3
2017-07-01T05:40:02.631Z,14.1
2017-07-01T05:45:03.485Z,14.3
2017-07-01T05:50:02.757Z,14.3
2017-07-01T05:55:03.048Z,14.3
2017-07-01T06:00:02.425Z,14.1
2017-07-01T06:05:02.834Z,14.3
2017-07-01T06:10:02.332Z,14.1
2017-07-01T06:15:02.631Z,14.3
2017-07-01T06:25:02.664Z,14.3
2017-07-01T06:30:03.411Z,14.3
2017-07-01T06:35:02.787Z,14.3
2017-07-01T06:40:03.142Z,14.3
2017-07-01T06:45:02.414Z,14.5
2017-07-01T06:50:02.824Z,14.5
2017-07-01T06:55:03.222Z,14.5
2017-07-01T07:00:02.519Z,14.5
2017-07-01T07:05:02.944Z,14.5
2017-07-01T07:10:02.384Z,14.5
2017-07-01T07:15:02.970Z,14.3
2017-07-01T07:20:02.350Z,14.3
2017-07-01T07:25:02.603Z,14.6
2017-07-01T07:30:04.188Z,14.5
2017-07-01T07:35:02.590Z,14.5
2017-07-01T07:40:03.065Z,14.5
2017-07-01T07:45:02.298Z,14.6
2017-07-01T07:50:02.703Z,14.5
2017-07-01T07:55:03.133Z,14.6
2017-07-01T08:00:02.510Z,14.8
2017-07-01T08:05:02.912Z,14.5
2017-07-01T08:10:02.525Z,14.6
2017-07-01T08:15:02.957Z,14.6
2017-07-01T08:20:02.494Z,14.8
2017-07-01T08:25:03.195Z,14.6
2017-07-01T08:30:02.865Z,14.6
2017-07-01T08:35:02.429Z,14.8
2017-07-01T08:40:02.263Z,15.0
2017-07-01T08:45:02.655Z,15.1
2017-07-01T08:50:03.235Z,15.1
2017-07-01T08:55:02.748Z,15.1
2017-07-01T09:00:02.339Z,15.1
2017-07-01T09:05:02.986Z,15.1
2017-07-01T09:10:03.015Z,15.3
2017-07-01T09:15:02.661Z,15.3
2017-07-01T09:20:02.598Z,15.5
2017-07-01T09:25:02.876Z,15.6
2017-07-01T09:30:03.106Z,15.5
2017-07-01T09:35:02.805Z,15.8
2017-07-01T09:40:02.907Z,15.8
2017-07-01T09:45:02.757Z,16.0
2017-07-01T09:50:02.812Z,16.2
2017-07-01T09:55:02.800Z,16.2
2017-07-01T10:00:03.245Z,16.3
2017-07-01T10:05:02.617Z,16.6
2017-07-01T10:10:02.559Z,16.6
2017-07-01T10:15:03.103Z,16.3
2017-07-01T10:20:02.768Z,16.2
2017-07-01T10:25:02.726Z,16.2
2017-07-01T10:30:03.034Z,16.7
2017-07-01T10:35:02.405Z,16.6
2017-07-01T10:40:02.469Z,16.3
2017-07-01T10:45:02.280Z,16.2
2017-07-01T10:50:02.480Z,17.2
2017-07-01T10:55:02.749Z,17.3
2017-07-01T11:00:02.532Z,17.3
2017-07-01T11:05:03.083Z,17.3
2017-07-01T11:10:02.885Z,17.8
2017-07-01T11:15:03.125Z,18.5
2017-07-01T11:20:02.597Z,20.0
2017-07-01T11:25:02.582Z,20.7
2017-07-01T11:30:02.386Z,20.8
2017-07-01T11:35:02.386Z,19.1
2017-07-01T11:40:02.684Z,18.2
2017-07-01T11:45:02.922Z,18.2
2017-07-01T11:50:02.303Z,18.6
2017-07-01T11:55:02.637Z,18.6
2017-07-01T12:00:02.957Z,18.7
2017-07-01T12:05:03.101Z,18.8
2017-07-01T12:10:02.638Z,19.3
2017-07-01T12:15:02.725Z,19.3
2017-07-01T12:20:02.720Z,18.7
2017-07-01T12:25:03.087Z,17.8
2017-07-01T12:30:02.267Z,17.1
2017-07-01T12:35:02.410Z,16.7
2017-07-01T12:40:02.741Z,17.1
2017-07-01T12:45:02.292Z,17.1
2017-07-01T12:50:03.125Z,17.2
2017-07-01T12:55:02.316Z,17.2
2017-07-01T13:00:02.487Z,17.2
2017-07-01T13:05:03.109Z,17.3
2017-07-01T13:10:03.037Z,17.1
2017-07-01T13:15:02.333Z,17.5
2017-07-01T13:20:02.277Z,17.1
2017-07-01T13:25:03.187Z,17.0
2017-07-01T13:30:02.580Z,17.2
2017-07-01T13:35:02.658Z,17.5
2017-07-01T13:40:02.800Z,17.3
2017-07-01T13:45:03.078Z,17.3
2017-07-01T13:50:03.254Z,17.7
2017-07-01T13:55:02.279Z,18.1
2017-07-01T14:00:02.543Z,18.6
2017-07-01T14:05:03.070Z,19.0
2017-07-01T14:10:02.437Z,19.1
2017-07-01T14:15:02.644Z,19.2
2017-07-01T14:20:03.073Z,19.5
2017-07-01T14:25:02.555Z,19.3
2017-07-01T14:30:02.914Z,19.2
2017-07-01T14:35:02.549Z,18.7
2017-07-01T14:40:03.028Z,18.2
2017-07-01T14:45:02.496Z,17.8
2017-07-01T14:50:02.910Z,17.8
2017-07-01T14:55:02.358Z,17.8
2017-07-01T15:00:02.739Z,18.2
2017-07-01T15:05:02.448Z,18.6
2017-07-01T15:10:02.837Z,19.0
2017-07-01T15:15:03.424Z,18.6
2017-07-01T15:20:02.911Z,18.8
2017-07-01T15:25:03.258Z,19.0
2017-07-01T15:30:02.629Z,19.1
2017-07-01T15:35:02.993Z,19.1
2017-07-01T15:40:02.386Z,19.5
2017-07-01T15:45:02.695Z,19.7
2017-07-01T15:50:02.919Z,19.7
2017-07-01T15:55:02.302Z,20.1
2017-07-01T16:00:03.013Z,20.3
2017-07-01T16:05:02.541Z,20.2
2017-07-01T16:10:02.496Z,20.0
2017-07-01T16:15:02.380Z,20.2
2017-07-01T16:20:02.446Z,21.2
2017-07-01T16:25:02.765Z,22.5
2017-07-01T16:30:02.887Z,23.0
2017-07-01T16:35:03.025Z,23.1
2017-07-01T16:40:02.496Z,23.0
2017-07-01T16:45:02.637Z,22.3
2017-07-01T16:50:02.761Z,21.3
2017-07-01T16:55:03.040Z,21.2
2017-07-01T17:00:02.339Z,21.0
2017-07-01T17:05:02.513Z,20.7
2017-07-01T17:10:02.922Z,20.6
2017-07-01T17:15:03.169Z,20.6
2017-07-01T17:20:02.659Z,20.3
2017-07-01T17:25:02.851Z,20.2
2017-07-01T17:30:02.721Z,20.1
2017-07-01T17:35:02.997Z,20.6
2017-07-01T17:40:03.289Z,20.3
2017-07-01T17:45:02.356Z,22.0
2017-07-01T17:50:02.522Z,22.1
2017-07-01T17:55:02.373Z,23.0
2017-07-01T18:00:03.036Z,22.2
2017-07-01T18:05:02.414Z,20.7
2017-07-01T18:10:03.131Z,22.2
2017-07-01T18:15:02.351Z,21.8
2017-07-01T18:20:02.455Z,21.8
2017-07-01T18:25:02.577Z,21.8
2017-07-01T18:30:02.809Z,22.1
2017-07-01T18:35:03.147Z,21.8
2017-07-01T18:40:02.411Z,21.3
2017-07-01T18:45:02.397Z,21.2
2017-07-01T18:50:02.567Z,21.2
2017-07-01T18:55:02.594Z,20.7
2017-07-01T19:00:02.854Z,20.1
2017-07-01T19:05:02.357Z,19.7
2017-07-01T19:10:03.227Z,19.1
2017-07-01T19:15:02.354Z,19.0
2017-07-01T19:20:03.202Z,18.7
2017-07-01T19:25:03.211Z,18.6
2017-07-01T19:30:02.459Z,18.2
2017-07-01T19:35:02.416Z,18.2
2017-07-01T19:40:02.604Z,18.1
2017-07-01T19:45:03.038Z,17.8
2017-07-01T19:50:02.583Z,17.7
2017-07-01T19:55:02.872Z,17.5
2017-07-01T20:00:03.178Z,17.2
2017-07-01T20:05:02.809Z,17.1
2017-07-01T20:10:02.335Z,17.0
2017-07-01T20:15:02.468Z,16.7
2017-07-01T20:20:02.588Z,16.6
2017-07-01T20:25:02.430Z,16.3
2017-07-01T20:30:02.756Z,16.2
2017-07-01T20:35:03.159Z,16.2
2017-07-01T20:40:02.405Z,16.2
2017-07-01T20:45:02.485Z,16.2
2017-07-01T20:50:02.704Z,16.3
2017-07-01T20:55:02.909Z,16.3
2017-07-01T21:00:03.114Z,16.3
2017-07-01T21:05:02.969Z,16.3
2017-07-01T21:10:03.264Z,16.3
2017-07-01T21:15:02.909Z,16.2
2017-07-01T21:20:03.013Z,16.2
2017-07-01T21:25:02.713Z,16.2
2017-07-01T21:30:02.706Z,16.2
2017-07-01T21:35:02.418Z,16.2
2017-07-01T21:40:03.074Z,16.0
2017-07-01T21:45:02.547Z,15.8
2017-07-01T21:50:03.059Z,15.8
2017-07-01T21:55:02.496Z,15.6
2017-07-01T22:00:02.958Z,15.5
2017-07-01T22:05:02.408Z,15.6
2017-07-01T22:10:02.775Z,15.5
2017-07-01T22:15:03.142Z,15.6
2017-07-01T22:20:02.472Z,15.6
2017-07-01T22:25:02.911Z,15.6
2017-07-01T22:30:02.369Z,15.6
2017-07-01T22:35:02.780Z,15.6
2017-07-01T22:40:03.250Z,15.6
2017-07-01T22:45:02.621Z,15.6
2017-07-01T22:50:02.992Z,15.6
2017-07-01T22:55:02.263Z,15.6
2017-07-01T23:00:02.736Z,15.6
2017-07-01T23:05:02.389Z,15.6
2017-07-01T23:10:02.759Z,15.6
2017-07-01T23:15:02.296Z,15.6
2017-07-01T23:20:02.663Z,15.6
2017-07-01T23:25:03.101Z,15.5
2017-07-01T23:30:02.356Z,15.5
2017-07-01T23:35:02.784Z,15.1
2017-07-01T23:40:03.213Z,15.1
2017-07-01T23:45:02.656Z,15.0
2017-07-01T23:50:03.043Z,15.0
2017-07-01T23:55:02.314Z,14.8
